sensor_id;sensor_type;location;lat;lon;timestamp;pressure;altitude;pressure_sealevel;temperature;humidity
29985;BME280;17387;42.690;23.328;2022-12-07T00:01:08;47815.34;;;-144.02;94.54
29985;BME280;17387;42.690;23.328;2022-12-07T00:03:34;47817.13;;;-144.02;95.02
29985;BME280;17387;42.690;23.328;2022-12-07T00:06:01;47817.38;;;-144.02;95.00
29985;BME280;17387;42.690;23.328;2022-12-07T00:08:27;47811.03;;;-144.02;94.86
29985;BME280;17387;42.690;23.328;2022-12-07T00:10:54;47839.72;;;-144.02;94.90
29985;BME280;17387;42.690;23.328;2022-12-07T00:13:20;47839.72;;;-144.02;95.06
29985;BME280;17387;42.690;23.328;2022-12-07T00:15:45;47815.09;;;-144.02;95.10
29985;BME280;17387;42.690;23.328;2022-12-07T00:18:10;47811.28;;;-144.02;94.93
29985;BME280;17387;42.690;23.328;2022-12-07T00:20:36;47829.31;;;-144.02;94.69
29985;BME280;17387;42.690;23.328;2022-12-07T00:23:01;47803.16;;;-144.02;94.88
29985;BME280;17387;42.690;23.328;2022-12-07T00:25:27;47831.59;;;-144.02;95.26
29985;BME280;17387;42.690;23.328;2022-12-07T00:27:53;47839.72;;;-144.02;95.44
29985;BME280;17387;42.690;23.328;2022-12-07T00:30:21;47827.28;;;-144.02;95.33
29985;BME280;17387;42.690;23.328;2022-12-07T00:32:46;47795.03;;;-144.02;95.42
29985;BME280;17387;42.690;23.328;2022-12-07T00:35:11;47803.16;;;-144.02;95.12
29985;BME280;17387;42.690;23.328;2022-12-07T00:37:37;47815.34;;;-144.02;94.49
29985;BME280;17387;42.690;23.328;2022-12-07T00:40:02;47837.69;;;-144.02;93.96
29985;BME280;17387;42.690;23.328;2022-12-07T00:42:28;47750.34;;;-144.02;93.90
29985;BME280;17387;42.690;23.328;2022-12-07T00:44:53;47806.97;;;-144.02;93.95
29985;BME280;17387;42.690;23.328;2022-12-07T00:47:19;47792.75;;;-144.02;93.51
29985;BME280;17387;42.690;23.328;2022-12-07T00:49:44;47774.72;;;-144.02;93.18
29985;BME280;17387;42.690;23.328;2022-12-07T00:52:09;47847.84;;;-144.02;93.33
29985;BME280;17387;42.690;23.328;2022-12-07T00:54:35;47815.34;;;-144.02;93.38
29985;BME280;17387;42.690;23.328;2022-12-07T00:57:00;47825.50;;;-144.02;93.63
29985;BME280;17387;42.690;23.328;2022-12-07T00:59:26;47795.03;;;-144.02;93.99
29985;BME280;17387;42.690;23.328;2022-12-07T01:01:51;47849.88;;;-144.02;94.20
29985;BME280;17387;42.690;23.328;2022-12-07T01:04:16;47819.16;;;-144.02;94.24
29985;BME280;17387;42.690;23.328;2022-12-07T01:06:42;47815.34;;;-144.02;93.95
29985;BME280;17387;42.690;23.328;2022-12-07T01:09:07;47782.59;;;-144.02;93.71
29985;BME280;17387;42.690;23.328;2022-12-07T01:11:32;47790.97;;;-144.02;93.30
29985;BME280;17387;42.690;23.328;2022-12-07T01:13:59;47823.22;;;-144.02;92.88
29985;BME280;17387;42.690;23.328;2022-12-07T01:16:27;47795.03;;;-144.02;92.78
29985;BME280;17387;42.690;23.328;2022-12-07T01:18:55;47796.81;;;-144.02;92.84
29985;BME280;17387;42.690;23.328;2022-12-07T01:21:26;47819.41;;;-144.02;92.50
29985;BME280;17387;42.690;23.328;2022-12-07T01:23:52;47780.81;;;-144.02;92.32
29985;BME280;17387;42.690;23.328;2022-12-07T01:26:22;47815.34;;;-144.02;92.19
29985;BME280;17387;42.690;23.328;2022-12-07T01:28:49;47811.03;;;-144.02;92.23
29985;BME280;17387;42.690;23.328;2022-12-07T01:31:19;47790.97;;;-144.02;92.46
29985;BME280;17387;42.690;23.328;2022-12-07T01:33:50;47807.22;;;-144.02;93.16
29985;BME280;17387;42.690;23.328;2022-12-07T01:36:25;47805.19;;;-144.02;93.68
29985;BME280;17387;42.690;23.328;2022-12-07T01:38:54;47807.22;;;-144.02;93.37
29985;BME280;17387;42.690;23.328;2022-12-07T01:41:22;47807.22;;;-144.02;93.13
29985;BME280;17387;42.690;23.328;2022-12-07T01:46:32;47803.16;;;-144.02;92.37
29985;BME280;17387;42.690;23.328;2022-12-07T01:48:57;47782.84;;;-144.02;91.94
29985;BME280;17387;42.690;23.328;2022-12-07T01:51:23;47831.59;;;-144.02;92.01
29985;BME280;17387;42.690;23.328;2022-12-07T01:53:49;47766.59;;;-144.02;92.15
29985;BME280;17387;42.690;23.328;2022-12-07T01:56:19;47823.47;;;-144.02;92.22
29985;BME280;17387;42.690;23.328;2022-12-07T01:58:45;47776.75;;;-144.02;92.46
29985;BME280;17387;42.690;23.328;2022-12-07T02:01:12;47778.78;;;-144.02;92.53
29985;BME280;17387;42.690;23.328;2022-12-07T02:03:40;47813.31;;;-144.02;92.77
29985;BME280;17387;42.690;23.328;2022-12-07T02:06:07;47803.16;;;-144.02;93.45
29985;BME280;17387;42.690;23.328;2022-12-07T02:08:34;47797.06;;;-144.02;93.72
29985;BME280;17387;42.690;23.328;2022-12-07T02:11:01;47807.22;;;-144.02;93.65
29985;BME280;17387;42.690;23.328;2022-12-07T02:13:31;47804.94;;;-144.02;93.20
29985;BME280;17387;42.690;23.328;2022-12-07T02:21:20;47823.47;;;-144.02;92.51
29985;BME280;17387;42.690;23.328;2022-12-07T02:29:50;47829.56;;;-144.02;92.33
29985;BME280;17387;42.690;23.328;2022-12-07T02:37:49;47805.19;;;-144.02;93.37
29985;BME280;17387;42.690;23.328;2022-12-07T02:40:23;47786.91;;;-144.02;93.42
29985;BME280;17387;42.690;23.328;2022-12-07T02:42:55;47819.41;;;-144.02;93.47
29985;BME280;17387;42.690;23.328;2022-12-07T02:45:25;47811.28;;;-144.02;93.20
29985;BME280;17387;42.690;23.328;2022-12-07T02:47:55;47795.03;;;-144.02;93.65
29985;BME280;17387;42.690;23.328;2022-12-07T02:50:24;47815.34;;;-144.02;94.31
29985;BME280;17387;42.690;23.328;2022-12-07T02:52:49;47778.78;;;-144.02;94.50
29985;BME280;17387;42.690;23.328;2022-12-07T02:55:17;47845.81;;;-144.02;94.60
29985;BME280;17387;42.690;23.328;2022-12-07T03:00:24;47744.25;;;-144.02;95.61
29985;BME280;17387;42.690;23.328;2022-12-07T03:02:54;47835.66;;;-144.02;95.13
29985;BME280;17387;42.690;23.328;2022-12-07T03:11:15;47835.66;;;-144.02;96.08
29985;BME280;17387;42.690;23.328;2022-12-07T03:13:53;47817.38;;;-144.02;96.26
29985;BME280;17387;42.690;23.328;2022-12-07T03:16:30;47804.94;;;-144.02;95.99
29985;BME280;17387;42.690;23.328;2022-12-07T03:19:02;47823.22;;;-144.02;95.65
29985;BME280;17387;42.690;23.328;2022-12-07T03:21:37;47807.22;;;-144.02;96.03
29985;BME280;17387;42.690;23.328;2022-12-07T03:24:07;47827.53;;;-144.02;96.04
29985;BME280;17387;42.690;23.328;2022-12-07T03:26:36;47853.94;;;-144.02;96.06
29985;BME280;17387;42.690;23.328;2022-12-07T03:29:12;47827.53;;;-144.02;96.38
29985;BME280;17387;42.690;23.328;2022-12-07T03:31:42;47827.53;;;-144.02;96.50
29985;BME280;17387;42.690;23.328;2022-12-07T03:34:18;47782.84;;;-144.02;96.78
29985;BME280;17387;42.690;23.328;2022-12-07T03:41:42;47837.44;;;-144.02;96.69
29985;BME280;17387;42.690;23.328;2022-12-07T03:44:08;47806.97;;;-144.02;96.44
29985;BME280;17387;42.690;23.328;2022-12-07T03:49:30;47811.28;;;-144.02;95.93
29985;BME280;17387;42.690;23.328;2022-12-07T03:54:37;47817.13;;;-144.02;95.93
29985;BME280;17387;42.690;23.328;2022-12-07T03:57:05;47813.06;;;-144.02;95.68
29985;BME280;17387;42.690;23.328;2022-12-07T03:59:32;47823.47;;;-144.02;95.75
29985;BME280;17387;42.690;23.328;2022-12-07T04:02:03;47782.84;;;-144.02;95.72
29985;BME280;17387;42.690;23.328;2022-12-07T04:04:29;47829.56;;;-144.02;95.78
29985;BME280;17387;42.690;23.328;2022-12-07T04:06:54;47829.56;;;-144.02;96.15
29985;BME280;17387;42.690;23.328;2022-12-07T04:09:20;47786.91;;;-144.02;96.13
29985;BME280;17387;42.690;23.328;2022-12-07T04:11:45;47799.09;;;-144.02;96.38
29985;BME280;17387;42.690;23.328;2022-12-07T04:14:11;47849.88;;;-144.02;96.65
29985;BME280;17387;42.690;23.328;2022-12-07T04:19:14;47798.84;;;-144.02;96.56
29985;BME280;17387;42.690;23.328;2022-12-07T04:21:41;47782.59;;;-144.02;96.45
29985;BME280;17387;42.690;23.328;2022-12-07T04:24:07;47823.47;;;-144.02;97.01
29985;BME280;17387;42.690;23.328;2022-12-07T04:26:33;47795.03;;;-144.02;97.02
29985;BME280;17387;42.690;23.328;2022-12-07T04:28:58;47819.16;;;-144.02;97.03
29985;BME280;17387;42.690;23.328;2022-12-07T04:31:24;47819.41;;;-144.02;97.41
29985;BME280;17387;42.690;23.328;2022-12-07T04:33:49;47802.91;;;-144.02;97.19
29985;BME280;17387;42.690;23.328;2022-12-07T04:36:15;47831.34;;;-144.02;97.46
29985;BME280;17387;42.690;23.328;2022-12-07T04:38:40;47813.31;;;-144.02;97.42
29985;BME280;17387;42.690;23.328;2022-12-07T04:41:06;47819.16;;;-144.02;97.53
29985;BME280;17387;42.690;23.328;2022-12-07T04:43:33;47839.72;;;-144.02;97.49
29985;BME280;17387;42.690;23.328;2022-12-07T04:45:58;47825.25;;;-144.02;97.64
29985;BME280;17387;42.690;23.328;2022-12-07T04:48:24;47795.03;;;-144.02;97.67
29985;BME280;17387;42.690;23.328;2022-12-07T04:50:49;47819.41;;;-144.02;97.74
29985;BME280;17387;42.690;23.328;2022-12-07T04:53:15;47807.22;;;-144.02;97.68
29985;BME280;17387;42.690;23.328;2022-12-07T04:55:40;47819.16;;;-144.02;97.94
29985;BME280;17387;42.690;23.328;2022-12-07T04:58:06;47815.34;;;-144.02;97.98
29985;BME280;17387;42.690;23.328;2022-12-07T05:00:31;47837.69;;;-144.02;98.62
29985;BME280;17387;42.690;23.328;2022-12-07T05:02:56;47831.59;;;-144.02;99.08
29985;BME280;17387;42.690;23.328;2022-12-07T05:05:22;47845.81;;;-144.02;99.37
29985;BME280;17387;42.690;23.328;2022-12-07T05:07:47;47823.47;;;-144.02;99.45
29985;BME280;17387;42.690;23.328;2022-12-07T05:10:13;47819.41;;;-144.02;99.44
29985;BME280;17387;42.690;23.328;2022-12-07T05:12:38;47786.91;;;-144.02;99.46
29985;BME280;17387;42.690;23.328;2022-12-07T05:15:04;47793.00;;;-144.02;99.87
29985;BME280;17387;42.690;23.328;2022-12-07T05:17:29;47793.00;;;-144.02;99.98
29985;BME280;17387;42.690;23.328;2022-12-07T05:19:55;47843.78;;;-144.02;99.99
29985;BME280;17387;42.690;23.328;2022-12-07T05:22:20;47839.72;;;-144.02;100.00
29985;BME280;17387;42.690;23.328;2022-12-07T05:24:46;47841.75;;;-144.02;100.00
29985;BME280;17387;42.690;23.328;2022-12-07T05:27:12;47845.81;;;-144.02;100.00
29985;BME280;17387;42.690;23.328;2022-12-07T05:29:37;47801.13;;;-144.02;100.00
29985;BME280;17387;42.690;23.328;2022-12-07T05:32:04;47835.66;;;-144.02;100.00
29985;BME280;17387;42.690;23.328;2022-12-07T05:34:30;47819.41;;;-144.02;100.00
29985;BME280;17387;42.690;23.328;2022-12-07T05:36:56;47855.75;;;-144.02;100.00
29985;BME280;17387;42.690;23.328;2022-12-07T05:39:21;47795.03;;;-144.02;100.00
29985;BME280;17387;42.690;23.328;2022-12-07T05:41:47;47821.19;;;-144.02;100.00
29985;BME280;17387;42.690;23.328;2022-12-07T05:44:50;47882.38;;;-144.02;100.00
29985;BME280;17387;42.690;23.328;2022-12-07T05:47:16;47804.94;;;-144.02;100.00
29985;BME280;17387;42.690;23.328;2022-12-07T05:49:42;47790.97;;;-144.02;100.00
29985;BME280;17387;42.690;23.328;2022-12-07T05:52:07;47841.75;;;-144.02;100.00
29985;BME280;17387;42.690;23.328;2022-12-07T05:54:33;47823.47;;;-144.02;100.00
29985;BME280;17387;42.690;23.328;2022-12-07T05:56:59;47805.19;;;-144.02;100.00
29985;BME280;17387;42.690;23.328;2022-12-07T05:59:24;47858.00;;;-144.02;100.00
29985;BME280;17387;42.690;23.328;2022-12-07T06:01:57;47847.59;;;-144.02;100.00
29985;BME280;17387;42.690;23.328;2022-12-07T06:04:24;47829.56;;;-144.02;100.00
29985;BME280;17387;42.690;23.328;2022-12-07T06:06:51;47912.84;;;-144.02;100.00
29985;BME280;17387;42.690;23.328;2022-12-07T06:09:17;47831.59;;;-144.02;100.00
29985;BME280;17387;42.690;23.328;2022-12-07T06:11:43;47855.75;;;-144.02;99.88
29985;BME280;17387;42.690;23.328;2022-12-07T06:14:27;47795.03;;;-144.02;99.52
29985;BME280;17387;42.690;23.328;2022-12-07T06:16:53;47815.34;;;-144.02;99.95
29985;BME280;17387;42.690;23.328;2022-12-07T06:19:18;47807.22;;;-144.02;99.97
29985;BME280;17387;42.690;23.328;2022-12-07T06:21:44;47860.03;;;-144.02;100.00
29985;BME280;17387;42.690;23.328;2022-12-07T06:24:13;47833.38;;;-144.02;100.00
29985;BME280;17387;42.690;23.328;2022-12-07T06:26:39;47831.34;;;-144.02;99.80
29985;BME280;17387;42.690;23.328;2022-12-07T06:29:05;47855.97;;;-144.02;99.38
29985;BME280;17387;42.690;23.328;2022-12-07T06:31:31;47811.03;;;-144.02;99.18
29985;BME280;17387;42.690;23.328;2022-12-07T06:34:08;47839.47;;;-144.02;98.47
29985;BME280;17387;42.690;23.328;2022-12-07T06:36:34;47819.41;;;-144.02;98.37
29985;BME280;17387;42.690;23.328;2022-12-07T06:39:00;47868.16;;;-144.02;98.31
29985;BME280;17387;42.690;23.328;2022-12-07T06:41:26;47776.75;;;-144.02;98.43
29985;BME280;17387;42.690;23.328;2022-12-07T06:43:52;47827.53;;;-144.02;98.34
29985;BME280;17387;42.690;23.328;2022-12-07T06:46:18;47823.47;;;-144.02;98.02
29985;BME280;17387;42.690;23.328;2022-12-07T06:48:43;47774.72;;;-144.02;97.85
29985;BME280;17387;42.690;23.328;2022-12-07T06:51:09;47837.69;;;-144.02;97.72
29985;BME280;17387;42.690;23.328;2022-12-07T06:53:35;47782.84;;;-144.02;97.75
29985;BME280;17387;42.690;23.328;2022-12-07T06:56:01;47825.50;;;-144.02;97.97
29985;BME280;17387;42.690;23.328;2022-12-07T06:58:27;47799.09;;;-144.02;97.08
29985;BME280;17387;42.690;23.328;2022-12-07T07:00:53;47790.97;;;-144.02;96.28
29985;BME280;17387;42.690;23.328;2022-12-07T07:03:20;47799.09;;;-144.02;95.51
29985;BME280;17387;42.690;23.328;2022-12-07T07:05:45;47831.59;;;-144.02;95.76
29985;BME280;17387;42.690;23.328;2022-12-07T07:08:11;47811.28;;;-144.02;95.86
29985;BME280;17387;42.690;23.328;2022-12-07T07:10:38;47821.44;;;-144.02;95.63
29985;BME280;17387;42.690;23.328;2022-12-07T07:13:04;47809.25;;;-144.02;95.36
29985;BME280;17387;42.690;23.328;2022-12-07T07:15:30;47819.41;;;-144.02;95.18
29985;BME280;17387;42.690;23.328;2022-12-07T07:17:55;47799.09;;;-144.02;94.75
29985;BME280;17387;42.690;23.328;2022-12-07T07:20:21;47827.53;;;-144.02;94.55
29985;BME280;17387;42.690;23.328;2022-12-07T07:22:47;47801.13;;;-144.02;94.12
29985;BME280;17387;42.690;23.328;2022-12-07T07:25:14;47813.06;;;-144.02;93.28
29985;BME280;17387;42.690;23.328;2022-12-07T07:27:39;47806.97;;;-144.02;92.74
29985;BME280;17387;42.690;23.328;2022-12-07T07:30:06;47823.47;;;-144.02;92.82
29985;BME280;17387;42.690;23.328;2022-12-07T07:32:32;47797.06;;;-144.02;92.81
29985;BME280;17387;42.690;23.328;2022-12-07T07:34:57;47819.41;;;-144.02;93.29
29985;BME280;17387;42.690;23.328;2022-12-07T07:37:23;47782.84;;;-144.02;93.31
29985;BME280;17387;42.690;23.328;2022-12-07T07:39:48;47786.66;;;-144.02;92.54
29985;BME280;17387;42.690;23.328;2022-12-07T07:42:14;47782.84;;;-144.02;91.80
29985;BME280;17387;42.690;23.328;2022-12-07T07:44:39;47819.41;;;-144.02;91.99
29985;BME280;17387;42.690;23.328;2022-12-07T07:47:05;47762.28;;;-144.02;92.00
29985;BME280;17387;42.690;23.328;2022-12-07T07:49:30;47807.22;;;-144.02;91.53
29985;BME280;17387;42.690;23.328;2022-12-07T07:51:56;47806.97;;;-144.02;90.79
29985;BME280;17387;42.690;23.328;2022-12-07T07:54:21;47772.44;;;-144.02;91.16
29985;BME280;17387;42.690;23.328;2022-12-07T07:56:46;47778.53;;;-144.02;91.73
29985;BME280;17387;42.690;23.328;2022-12-07T07:59:12;47806.97;;;-144.02;91.59
29985;BME280;17387;42.690;23.328;2022-12-07T08:01:37;47790.72;;;-144.02;91.71
29985;BME280;17387;42.690;23.328;2022-12-07T08:04:02;47815.09;;;-144.02;92.34
29985;BME280;17387;42.690;23.328;2022-12-07T08:06:28;47806.97;;;-144.02;93.08
29985;BME280;17387;42.690;23.328;2022-12-07T08:08:53;47784.63;;;-144.02;92.87
29985;BME280;17387;42.690;23.328;2022-12-07T08:11:19;47821.19;;;-144.02;91.89
29985;BME280;17387;42.690;23.328;2022-12-07T08:13:47;47766.34;;;-144.02;91.91
29985;BME280;17387;42.690;23.328;2022-12-07T08:16:12;47806.97;;;-144.02;91.95
29985;BME280;17387;42.690;23.328;2022-12-07T08:18:40;47776.50;;;-144.02;91.23
29985;BME280;17387;42.690;23.328;2022-12-07T08:21:06;47794.78;;;-144.02;92.77
29985;BME280;17387;42.690;23.328;2022-12-07T08:23:33;47823.47;;;-144.02;92.62
29985;BME280;17387;42.690;23.328;2022-12-07T08:26:08;47786.66;;;-144.02;92.62
29985;BME280;17387;42.690;23.328;2022-12-07T08:28:34;47774.47;;;-144.02;92.57
29985;BME280;17387;42.690;23.328;2022-12-07T08:31:00;47811.03;;;-144.02;92.56
29985;BME280;17387;42.690;23.328;2022-12-07T08:33:27;47784.63;;;-144.02;92.60
29985;BME280;17387;42.690;23.328;2022-12-07T08:35:52;47792.75;;;-144.02;93.07
29985;BME280;17387;42.690;23.328;2022-12-07T08:38:18;47831.34;;;-144.02;93.05
29985;BME280;17387;42.690;23.328;2022-12-07T08:40:43;47823.22;;;-144.02;92.45
29985;BME280;17387;42.690;23.328;2022-12-07T08:43:08;47813.06;;;-144.02;92.01
29985;BME280;17387;42.690;23.328;2022-12-07T08:45:34;47786.66;;;-144.02;91.62
29985;BME280;17387;42.690;23.328;2022-12-07T08:48:10;47817.38;;;-144.02;91.71
29985;BME280;17387;42.690;23.328;2022-12-07T08:50:39;47772.44;;;-144.02;91.97
29985;BME280;17387;42.690;23.328;2022-12-07T08:53:05;47774.47;;;-144.02;91.64
29985;BME280;17387;42.690;23.328;2022-12-07T08:55:33;47815.09;;;-144.02;91.22
29985;BME280;17387;42.690;23.328;2022-12-07T08:58:00;47776.50;;;-144.02;90.68
29985;BME280;17387;42.690;23.328;2022-12-07T09:00:26;47780.56;;;-144.02;90.94
29985;BME280;17387;42.690;23.328;2022-12-07T09:02:51;47782.59;;;-144.02;90.46
29985;BME280;17387;42.690;23.328;2022-12-07T09:05:18;47770.41;;;-144.02;90.23
29985;BME280;17387;42.690;23.328;2022-12-07T09:07:46;47786.66;;;-144.02;89.46
29985;BME280;17387;42.690;23.328;2022-12-07T09:10:13;47784.63;;;-144.02;88.88
29985;BME280;17387;42.690;23.328;2022-12-07T09:12:38;47792.75;;;-144.02;88.12
29985;BME280;17387;42.690;23.328;2022-12-07T09:15:05;47809.00;;;-144.02;86.95
29985;BME280;17387;42.690;23.328;2022-12-07T09:17:34;47804.94;;;-144.02;86.12
29985;BME280;17387;42.690;23.328;2022-12-07T09:20:01;47770.41;;;-144.02;86.89
29985;BME280;17387;42.690;23.328;2022-12-07T09:22:30;47766.59;;;-144.02;87.25
29985;BME280;17387;42.690;23.328;2022-12-07T09:24:59;47823.22;;;-144.02;86.96
29985;BME280;17387;42.690;23.328;2022-12-07T09:27:26;47863.84;;;-144.02;86.90
29985;BME280;17387;42.690;23.328;2022-12-07T09:29:51;47776.50;;;-144.02;86.92
29985;BME280;17387;42.690;23.328;2022-12-07T09:32:17;47770.41;;;-144.02;86.86
29985;BME280;17387;42.690;23.328;2022-12-07T09:34:42;47806.97;;;-144.02;85.92
29985;BME280;17387;42.690;23.328;2022-12-07T09:37:08;47782.84;;;-144.02;85.94
29985;BME280;17387;42.690;23.328;2022-12-07T09:39:34;47804.94;;;-144.02;85.00
29985;BME280;17387;42.690;23.328;2022-12-07T09:42:03;47754.16;;;-144.02;84.97
29985;BME280;17387;42.690;23.328;2022-12-07T09:44:29;47739.94;;;-144.02;84.99
29985;BME280;17387;42.690;23.328;2022-12-07T09:46:54;47847.59;;;-144.02;84.54
29985;BME280;17387;42.690;23.328;2022-12-07T09:49:24;47802.91;;;-144.02;83.92
29985;BME280;17387;42.690;23.328;2022-12-07T09:52:26;47756.19;;;-144.02;82.84
29985;BME280;17387;42.690;23.328;2022-12-07T09:54:53;47802.91;;;-144.02;83.89
29985;BME280;17387;42.690;23.328;2022-12-07T09:57:32;47804.94;;;-144.02;83.01
29985;BME280;17387;42.690;23.328;2022-12-07T10:00:04;47786.66;;;-144.02;82.21
29985;BME280;17387;42.690;23.328;2022-12-07T10:05:25;47798.84;;;-144.02;80.35
29985;BME280;17387;42.690;23.328;2022-12-07T10:07:52;47803.16;;;-144.02;80.10
29985;BME280;17387;42.690;23.328;2022-12-07T10:10:31;47741.97;;;-144.02;79.84
29985;BME280;17387;42.690;23.328;2022-12-07T10:13:02;47786.66;;;-144.02;79.45
29985;BME280;17387;42.690;23.328;2022-12-07T10:15:57;47774.47;;;-144.02;78.57
29985;BME280;17387;42.690;23.328;2022-12-07T10:18:31;47772.44;;;-144.02;77.60
29985;BME280;17387;42.690;23.328;2022-12-07T10:23:42;47827.28;;;-144.02;77.89
29985;BME280;17387;42.690;23.328;2022-12-07T10:31:38;47780.56;;;-144.02;78.75
29985;BME280;17387;42.690;23.328;2022-12-07T10:34:37;47772.44;;;-144.02;78.99
29985;BME280;17387;42.690;23.328;2022-12-07T10:39:48;47784.63;;;-144.02;78.48
29985;BME280;17387;42.690;23.328;2022-12-07T10:42:28;47774.47;;;-144.02;78.10
29985;BME280;17387;42.690;23.328;2022-12-07T10:47:38;47794.78;;;-144.02;77.90
29985;BME280;17387;42.690;23.328;2022-12-07T11:01:22;47778.53;;;-144.02;78.18
29985;BME280;17387;42.690;23.328;2022-12-07T11:04:30;47766.34;;;-144.02;77.13
29985;BME280;17387;42.690;23.328;2022-12-07T11:07:39;47721.66;;;-144.02;76.79
29985;BME280;17387;42.690;23.328;2022-12-07T11:10:14;47754.16;;;-144.02;77.23
29985;BME280;17387;42.690;23.328;2022-12-07T11:16:07;47780.56;;;-144.02;76.94
29985;BME280;17387;42.690;23.328;2022-12-07T11:18:47;47778.53;;;-144.02;77.44
29985;BME280;17387;42.690;23.328;2022-12-07T11:24:19;47774.47;;;-144.02;78.47
29985;BME280;17387;42.690;23.328;2022-12-07T11:27:17;47786.66;;;-144.02;78.06
29985;BME280;17387;42.690;23.328;2022-12-07T11:37:51;47725.72;;;-144.02;78.62
29985;BME280;17387;42.690;23.328;2022-12-07T11:40:26;47719.63;;;-144.02;78.86
29985;BME280;17387;42.690;23.328;2022-12-07T11:45:46;47768.38;;;-144.02;79.04
29985;BME280;17387;42.690;23.328;2022-12-07T11:48:27;47811.03;;;-144.02;78.83
29985;BME280;17387;42.690;23.328;2022-12-07T11:50:57;47778.53;;;-144.02;77.68
29985;BME280;17387;42.690;23.328;2022-12-07T12:06:34;47737.91;;;-144.02;76.73
29985;BME280;17387;42.690;23.328;2022-12-07T12:09:15;47790.72;;;-144.02;76.37
29985;BME280;17387;42.690;23.328;2022-12-07T12:20:06;47780.56;;;-144.02;76.02
29985;BME280;17387;42.690;23.328;2022-12-07T12:22:42;47752.13;;;-144.02;76.22
29985;BME280;17387;42.690;23.328;2022-12-07T12:27:47;47758.22;;;-144.02;75.74
29985;BME280;17387;42.690;23.328;2022-12-07T12:33:00;47796.81;;;-144.02;74.92
29985;BME280;17387;42.690;23.328;2022-12-07T12:35:35;47739.94;;;-144.02;73.71
29985;BME280;17387;42.690;23.328;2022-12-07T12:40:55;47750.09;;;-144.02;72.24
29985;BME280;17387;42.690;23.328;2022-12-07T12:43:59;47766.34;;;-144.02;72.21
29985;BME280;17387;42.690;23.328;2022-12-07T12:51:52;47770.41;;;-144.02;72.45
29985;BME280;17387;42.690;23.328;2022-12-07T12:57:05;47809.00;;;-144.02;73.00
29985;BME280;17387;42.690;23.328;2022-12-07T12:59:58;47750.09;;;-144.02;73.61
29985;BME280;17387;42.690;23.328;2022-12-07T13:02:32;47725.72;;;-144.02;72.80
29985;BME280;17387;42.690;23.328;2022-12-07T13:15:40;47780.56;;;-144.02;73.55
29985;BME280;17387;42.690;23.328;2022-12-07T13:26:15;47750.09;;;-144.02;73.76
29985;BME280;17387;42.690;23.328;2022-12-07T13:31:23;47717.59;;;-144.02;73.09
29985;BME280;17387;42.690;23.328;2022-12-07T13:33:52;47713.53;;;-144.02;73.09
29985;BME280;17387;42.690;23.328;2022-12-07T13:36:23;47735.88;;;-144.02;73.42
29985;BME280;17387;42.690;23.328;2022-12-07T13:38:55;47721.66;;;-144.02;73.78
29985;BME280;17387;42.690;23.328;2022-12-07T13:41:23;47754.16;;;-144.02;73.92
29985;BME280;17387;42.690;23.328;2022-12-07T13:43:59;47744.00;;;-144.02;73.91
29985;BME280;17387;42.690;23.328;2022-12-07T13:46:35;47756.19;;;-144.02;71.18
29985;BME280;17387;42.690;23.328;2022-12-07T13:49:18;47723.69;;;-144.02;69.44
29985;BME280;17387;42.690;23.328;2022-12-07T13:51:43;47693.22;;;-144.02;69.91
29985;BME280;17387;42.690;23.328;2022-12-07T13:54:11;47729.78;;;-144.02;70.55
29985;BME280;17387;42.690;23.328;2022-12-07T13:56:36;47758.22;;;-144.02;70.23
29985;BME280;17387;42.690;23.328;2022-12-07T13:59:05;47707.44;;;-144.02;69.94
29985;BME280;17387;42.690;23.328;2022-12-07T14:01:37;47735.88;;;-144.02;67.71
29985;BME280;17387;42.690;23.328;2022-12-07T14:06:51;47721.66;;;-144.02;64.16
29985;BME280;17387;42.690;23.328;2022-12-07T14:09:20;47666.81;;;-144.02;65.74
29985;BME280;17387;42.690;23.328;2022-12-07T14:11:48;47693.22;;;-144.02;63.93
29985;BME280;17387;42.690;23.328;2022-12-07T14:14:19;47632.28;;;-144.02;62.80
29985;BME280;17387;42.690;23.328;2022-12-07T14:16:56;47827.28;;;-144.02;63.48
29985;BME280;17387;42.690;23.328;2022-12-07T14:27:36;47699.31;;;-144.02;69.66
29985;BME280;17387;42.690;23.328;2022-12-07T14:30:03;47733.84;;;-144.02;70.48
29985;BME280;17387;42.690;23.328;2022-12-07T14:32:30;47731.81;;;-144.02;72.38
29985;BME280;17387;42.690;23.328;2022-12-07T14:34:57;47723.69;;;-144.02;73.08
29985;BME280;17387;42.690;23.328;2022-12-07T14:37:23;47766.34;;;-144.02;73.77
29985;BME280;17387;42.690;23.328;2022-12-07T14:39:48;47715.56;;;-144.02;74.45
29985;BME280;17387;42.690;23.328;2022-12-07T14:42:14;47729.78;;;-144.02;75.64
29985;BME280;17387;42.690;23.328;2022-12-07T14:44:39;47746.03;;;-144.02;76.12
29985;BME280;17387;42.690;23.328;2022-12-07T14:47:04;47764.31;;;-144.02;76.60
29985;BME280;17387;42.690;23.328;2022-12-07T14:49:30;47764.31;;;-144.02;77.42
29985;BME280;17387;42.690;23.328;2022-12-07T14:51:55;47717.59;;;-144.02;78.32
29985;BME280;17387;42.690;23.328;2022-12-07T14:54:22;47754.16;;;-144.02;79.18
29985;BME280;17387;42.690;23.328;2022-12-07T14:56:51;47746.03;;;-144.02;79.19
29985;BME280;17387;42.690;23.328;2022-12-07T14:59:17;47794.78;;;-144.02;79.72
29985;BME280;17387;42.690;23.328;2022-12-07T15:01:44;47815.09;;;-144.02;80.14
29985;BME280;17387;42.690;23.328;2022-12-07T15:04:09;47744.00;;;-144.02;81.09
29985;BME280;17387;42.690;23.328;2022-12-07T15:06:35;47827.28;;;-144.02;81.80
29985;BME280;17387;42.690;23.328;2022-12-07T15:09:00;47741.97;;;-144.02;82.05
29985;BME280;17387;42.690;23.328;2022-12-07T15:11:26;47758.22;;;-144.02;82.76
29985;BME280;17387;42.690;23.328;2022-12-07T15:13:51;47746.03;;;-144.02;82.52